Time;durP1;ratioP1;P1;durP2;ratioP2;P2;SDS_P1;SDS_P2;PMS_P1;PMS_P2;Temp;Humidity;BMP_temperature;BMP_pressure;BME280_temperature;BME280_humidity;BME280_pressure;Samples;Min_cycle;Max_cycle;Signal;HPM_P1;HPM_P2
2022/08/17 00:00:36;;;;;;;7.88;7.00;;;;;;;17.13;87.90;99819.13;5009787;28;20059;-70
2022/08/17 00:03:11;;;;;;;10.68;8.27;;;;;;;17.16;87.76;99815.69;5008424;28;20026;-71
2022/08/17 00:06:01;;;;;;;7.88;6.88;;;;;;;17.19;87.27;99801.22;5027246;28;20017;-69
2022/08/17 00:08:34;;;;;;;8.15;6.10;;;;;;;17.31;87.38;99808.06;5009457;28;20033;-70
2022/08/17 00:11:00;;;;;;;7.88;6.65;;;;;;;17.32;86.79;99799.44;5010213;28;20048;-71
2022/08/17 00:13:41;;;;;;;6.22;4.93;;;;;;;17.40;86.86;99811.63;5028693;28;20514;-70
2022/08/17 00:16:11;;;;;;;8.63;7.50;;;;;;;17.45;86.63;99808.69;5027533;28;20042;-71
2022/08/17 00:18:37;;;;;;;6.20;5.47;;;;;;;17.47;86.78;99809.16;5010188;28;20022;-71
2022/08/17 00:21:05;;;;;;;6.38;5.78;;;;;;;17.55;86.33;99807.53;5031897;28;20483;-71
2022/08/17 00:23:31;;;;;;;7.32;6.03;;;;;;;17.62;85.83;99805.91;5010020;28;20075;-69
2022/08/17 00:25:56;;;;;;;7.47;6.68;;;;;;;17.70;85.93;99814.50;5010155;28;20033;-71
2022/08/17 00:28:22;;;;;;;9.13;7.88;;;;;;;17.73;85.54;99808.31;5025960;28;20033;-70
2022/08/17 00:30:50;;;;;;;7.25;6.18;;;;;;;17.72;85.17;99806.69;5028330;28;20087;-70
2022/08/17 00:33:19;;;;;;;7.43;6.70;;;;;;;17.76;85.06;99802.94;5012560;28;20032;-71
2022/08/17 00:35:46;;;;;;;8.43;7.47;;;;;;;17.82;84.87;99800.78;5016612;28;20128;-71
2022/08/17 00:38:12;;;;;;;5.80;5.20;;;;;;;17.83;84.58;99794.13;5033398;28;20105;-70
2022/08/17 00:40:42;;;;;;;7.70;6.65;;;;;;;17.88;84.98;99796.69;5027376;28;20039;-70
2022/08/17 00:43:16;;;;;;;7.45;6.57;;;;;;;17.87;84.63;99794.28;5013993;28;20486;-71
2022/08/17 00:45:42;;;;;;;7.67;6.87;;;;;;;17.86;83.91;99796.22;5028795;28;20494;-71
2022/08/17 00:48:07;;;;;;;5.90;5.30;;;;;;;17.79;83.99;99795.94;5012387;28;20021;-70
2022/08/17 00:50:34;;;;;;;6.32;5.63;;;;;;;17.74;83.85;99793.31;5013159;28;20025;-70
2022/08/17 00:53:00;;;;;;;5.15;4.40;;;;;;;17.75;83.71;99798.53;5028923;28;20022;-72
2022/08/17 00:55:26;;;;;;;6.85;5.65;;;;;;;17.76;83.46;99802.13;5028590;28;20037;-71
2022/08/17 00:57:57;;;;;;;6.35;5.65;;;;;;;17.75;83.61;99800.50;5029027;28;20018;-70
2022/08/17 01:00:34;;;;;;;5.60;4.40;;;;;;;17.72;83.87;99788.13;5029822;28;20036;-71
2022/08/17 01:03:05;;;;;;;5.95;5.40;;;;;;;17.73;83.66;99797.25;5011031;28;20017;-71
2022/08/17 01:05:33;;;;;;;6.85;5.80;;;;;;;17.74;83.86;99798.84;5012333;28;20021;-70
2022/08/17 01:08:01;;;;;;;7.70;6.95;;;;;;;17.73;83.74;99792.53;5010104;28;20022;-69
2022/08/17 01:10:35;;;;;;;6.05;5.45;;;;;;;17.71;83.88;99799.53;5010705;28;20022;-71
2022/08/17 01:13:01;;;;;;;6.40;5.70;;;;;;;17.73;83.66;99803.59;5025886;28;20494;-72
2022/08/17 01:15:30;;;;;;;6.78;6.07;;;;;;;17.67;84.46;99787.50;5011858;28;20436;-71
2022/08/17 01:17:55;;;;;;;7.88;7.07;;;;;;;17.66;84.13;99791.41;4999346;28;20030;-72
2022/08/17 01:20:21;;;;;;;7.43;6.72;;;;;;;17.63;84.55;99788.16;5015158;28;20036;-71
2022/08/17 01:22:46;;;;;;;7.72;6.95;;;;;;;17.65;84.46;99789.78;4994374;28;20079;-71
2022/08/17 01:25:13;;;;;;;7.53;6.80;;;;;;;17.61;84.79;99779.38;5014245;28;20352;-72
2022/08/17 01:27:42;;;;;;;8.30;7.40;;;;;;;17.63;84.67;99776.28;5027791;28;20026;-72
2022/08/17 01:30:10;;;;;;;9.20;8.10;;;;;;;17.62;84.79;99769.97;5041516;28;20074;-72
2022/08/17 01:32:36;;;;;;;10.18;8.32;;;;;;;17.68;84.65;99778.06;5032021;28;20032;-72
2022/08/17 01:35:03;;;;;;;8.77;7.38;;;;;;;17.63;85.12;99771.56;5003880;28;20033;-72
2022/08/17 01:37:33;;;;;;;6.13;5.50;;;;;;;17.71;84.66;99778.22;5020619;28;20033;-72
2022/08/17 01:40:23;;;;;;;6.07;4.90;;;;;;;17.67;84.62;99765.38;5020040;28;20487;-72
2022/08/17 01:43:00;;;;;;;4.80;4.30;;;;;;;17.86;84.96;99790.69;5003788;28;20091;-72
2022/08/17 01:45:30;;;;;;;5.90;4.40;;;;;;;17.90;84.58;99785.34;5013275;28;20037;-72
2022/08/17 01:47:56;;;;;;;6.10;5.50;;;;;;;17.92;84.48;99777.53;5009352;28;20013;-71
2022/08/17 01:50:29;;;;;;;8.55;6.70;;;;;;;17.92;84.20;99772.81;5016506;28;20364;-70
2022/08/17 01:53:00;;;;;;;10.98;8.43;;;;;;;17.96;83.88;99775.75;5029096;28;20018;-70
2022/08/17 01:55:32;;;;;;;10.93;8.25;;;;;;;17.98;83.66;99778.16;5032045;28;20036;-71
2022/08/17 01:57:58;;;;;;;8.63;7.78;;;;;;;17.98;83.64;99778.16;5032392;28;20032;-71
2022/08/17 02:00:24;;;;;;;10.43;8.13;;;;;;;17.98;84.15;99776.22;5032201;28;20455;-70
2022/08/17 02:02:49;;;;;;;8.57;7.05;;;;;;;17.99;83.81;99771.47;5008980;28;20029;-70
2022/08/17 02:05:15;;;;;;;6.30;5.70;;;;;;;18.02;83.70;99781.88;5004396;28;20103;-70
2022/08/17 02:07:41;;;;;;;5.53;4.43;;;;;;;18.04;84.08;99785.94;4976913;28;20496;-71
2022/08/17 02:10:07;;;;;;;5.28;4.00;;;;;;;18.03;84.04;99783.50;5018609;28;20044;-71
2022/08/17 02:12:36;;;;;;;7.35;6.00;;;;;;;18.06;84.35;99788.38;4998415;28;20135;-71
2022/08/17 02:15:07;;;;;;;7.97;6.55;;;;;;;18.02;84.09;99788.25;5011723;28;20492;-71
2022/08/17 02:17:32;;;;;;;8.60;7.28;;;;;;;17.96;84.05;99786.81;5032481;28;20120;-71
2022/08/17 02:19:58;;;;;;;10.13;8.48;;;;;;;17.86;84.41;99793.47;4996197;28;20035;-73
2022/08/17 02:22:24;;;;;;;11.05;7.85;;;;;;;17.77;84.76;99801.78;5001730;28;20029;-70
2022/08/17 02:24:52;;;;;;;10.23;9.10;;;;;;;17.74;84.61;99810.75;5021381;28;20034;-71
2022/08/17 02:27:18;;;;;;;8.43;7.55;;;;;;;17.77;84.86;99812.84;5021637;28;20056;-71
2022/08/17 02:29:43;;;;;;;10.70;9.57;;;;;;;17.77;85.03;99818.38;5016937;28;20045;-70
2022/08/17 02:32:21;;;;;;;10.57;8.52;;;;;;;17.78;85.31;99821.94;5002798;28;20038;-71
2022/08/17 02:34:47;;;;;;;10.80;8.45;;;;;;;17.79;85.29;99823.59;5010238;28;20033;-72
2022/08/17 02:37:16;;;;;;;8.60;7.70;;;;;;;17.77;84.86;99823.09;5018930;28;20057;-72
2022/08/17 02:39:45;;;;;;;11.95;9.10;;;;;;;17.84;84.75;99828.91;5019628;28;20033;-71
2022/08/17 02:42:12;;;;;;;9.20;8.07;;;;;;;17.81;84.91;99821.28;5031406;28;20023;-73
2022/08/17 02:44:41;;;;;;;8.10;7.10;;;;;;;17.89;85.02;99830.72;5028270;28;20041;-71
2022/08/17 02:47:08;;;;;;;15.32;9.10;;;;;;;17.90;85.01;99824.06;5017011;28;20148;-73
2022/08/17 02:49:34;;;;;;;15.35;11.23;;;;;;;17.93;84.75;99834.47;5031975;28;20033;-72
2022/08/17 02:52:02;;;;;;;10.68;8.70;;;;;;;17.96;84.88;99834.63;4995140;28;20349;-72
2022/08/17 02:54:27;;;;;;;10.05;7.45;;;;;;;18.03;84.91;99838.84;5014522;28;20033;-70
2022/08/17 02:56:53;;;;;;;14.02;10.50;;;;;;;18.07;84.72;99828.72;5008683;28;20784;-70
2022/08/17 02:59:18;;;;;;;13.93;11.20;;;;;;;18.10;84.58;99839.13;5031087;28;20044;-70
2022/08/17 03:01:44;;;;;;;16.30;12.40;;;;;;;18.12;84.26;99836.84;5009359;28;20040;-69
2022/08/17 03:04:09;;;;;;;14.48;11.82;;;;;;;18.09;84.39;99843.03;5012378;28;20048;-68
2022/08/17 03:06:36;;;;;;;21.65;14.68;;;;;;;18.04;84.13;99841.25;5023343;28;20036;-70
2022/08/17 03:09:02;;;;;;;17.00;13.35;;;;;;;18.05;84.29;99855.94;5015244;28;20071;-70
2022/08/17 03:11:27;;;;;;;17.90;12.48;;;;;;;17.91;84.38;99845.84;5010078;28;21007;-70
2022/08/17 03:13:52;;;;;;;12.73;9.88;;;;;;;17.85;84.22;99844.38;5024914;28;20124;-69
2022/08/17 03:16:18;;;;;;;18.02;12.15;;;;;;;17.87;84.79;99847.66;5001996;28;20111;-70
2022/08/17 03:18:43;;;;;;;15.18;13.50;;;;;;;17.96;84.39;99848.47;5017661;28;20029;-70
2022/08/17 03:21:08;;;;;;;17.58;14.43;;;;;;;17.98;84.25;99837.06;4980413;28;20124;-71
2022/08/17 03:23:39;;;;;;;14.13;11.50;;;;;;;18.01;84.23;99846.66;4985905;28;20822;-71
2022/08/17 03:26:09;;;;;;;12.93;8.32;;;;;;;18.06;84.41;99849.22;5007133;28;20053;-70
2022/08/17 03:28:39;;;;;;;9.10;8.07;;;;;;;18.12;84.04;99847.91;4995753;28;20061;-70
2022/08/17 03:31:05;;;;;;;14.43;11.45;;;;;;;18.17;83.50;99852.47;4998479;28;20022;-69
2022/08/17 03:33:31;;;;;;;17.17;11.77;;;;;;;18.18;83.46;99835.53;4994359;28;20030;-70
2022/08/17 03:35:57;;;;;;;18.65;13.88;;;;;;;18.22;83.15;99835.66;4997377;28;20557;-70
2022/08/17 03:38:23;;;;;;;15.73;11.68;;;;;;;18.26;83.43;99840.19;5001872;28;20038;-71
2022/08/17 03:40:50;;;;;;;11.82;10.55;;;;;;;18.26;82.98;99834.66;4998413;28;20402;-70
2022/08/17 03:43:17;;;;;;;15.13;11.75;;;;;;;18.25;82.91;99830.31;4976946;28;20064;-70
2022/08/17 03:57:02;;;;;;;26.83;17.75;;;;;;;18.30;82.54;99865.28;5024373;28;20478;-71
2022/08/17 03:59:28;;;;;;;16.42;11.90;;;;;;;18.28;82.20;99862.84;4996167;28;20022;-71
2022/08/17 04:01:57;;;;;;;13.75;10.23;;;;;;;18.27;82.72;99866.75;5019203;28;20030;-70
2022/08/17 04:04:23;;;;;;;9.88;7.97;;;;;;;18.28;82.20;99867.53;5013049;28;20712;-70
2022/08/17 04:06:49;;;;;;;11.00;9.07;;;;;;;18.28;82.52;99856.47;5020872;28;20079;-69
2022/08/17 04:09:15;;;;;;;9.10;8.05;;;;;;;18.29;82.44;99853.38;5013740;28;20026;-71
2022/08/17 04:11:40;;;;;;;16.58;12.25;;;;;;;18.33;81.76;99866.56;4999462;28;20125;-71
2022/08/17 04:14:06;;;;;;;16.80;12.73;;;;;;;18.22;82.03;99864.13;5015010;28;20065;-72
2022/08/17 04:16:33;;;;;;;15.38;10.80;;;;;;;18.23;81.90;99868.53;5013026;28;20034;-71
2022/08/17 04:18:59;;;;;;;10.50;8.70;;;;;;;18.23;82.32;99868.53;4970605;28;20495;-70
2022/08/17 04:21:25;;;;;;;13.63;9.68;;;;;;;18.25;82.05;99874.56;4992675;28;20037;-71
2022/08/17 04:23:50;;;;;;;17.45;11.60;;;;;;;18.25;81.86;99869.03;5008011;28;20533;-69
2022/08/17 04:26:16;;;;;;;18.13;13.43;;;;;;;18.24;81.88;99867.41;4992574;28;20513;-71
2022/08/17 04:28:42;;;;;;;16.42;11.73;;;;;;;18.22;81.59;99866.09;4990664;28;20520;-70
2022/08/17 04:31:09;;;;;;;15.48;11.40;;;;;;;18.26;81.50;99867.88;4993634;28;20125;-69
2022/08/17 04:33:36;;;;;;;13.70;9.50;;;;;;;18.22;81.55;99868.88;4997040;28;20984;-69
2022/08/17 04:36:04;;;;;;;14.50;11.18;;;;;;;18.27;81.09;99863.97;4985456;28;20460;-70
2022/08/17 04:38:33;;;;;;;17.17;13.57;;;;;;;18.28;81.22;99871.16;5011413;28;20484;-70
2022/08/17 04:43:44;;;;;;;;;;;;;;;18.27;81.34;99877.00;5010323;28;20032;-70
2022/08/17 04:46:13;;;;;;;12.38;9.85;;;;;;;18.27;81.28;99866.75;5011961;28;20280;-71
2022/08/17 04:48:44;;;;;;;13.52;9.57;;;;;;;18.25;80.72;99866.28;5009649;28;20080;-70
2022/08/17 04:51:21;;;;;;;13.52;9.45;;;;;;;18.18;81.13;99857.66;5008503;28;20022;-70
2022/08/17 04:53:49;;;;;;;12.20;9.68;;;;;;;18.13;81.64;99866.13;5009470;28;20038;-70
2022/08/17 04:56:15;;;;;;;15.48;11.23;;;;;;;18.11;81.33;99862.91;5005612;28;20104;-71
2022/08/17 04:58:47;;;;;;;21.23;13.35;;;;;;;18.06;81.71;99860.28;5006677;28;20041;-70
2022/08/17 05:01:13;;;;;;;15.52;12.35;;;;;;;18.14;81.51;99859.47;5007696;28;20033;-70
2022/08/17 05:03:40;;;;;;;13.85;10.48;;;;;;;18.17;81.62;99861.56;5010434;28;20038;-70
2022/08/17 05:06:06;;;;;;;11.20;9.30;;;;;;;18.13;81.39;99855.06;5000256;28;20029;-71
2022/08/17 05:08:31;;;;;;;11.90;9.50;;;;;;;18.11;81.46;99860.94;4995876;28;20084;-70
2022/08/17 05:10:57;;;;;;;13.10;9.95;;;;;;;18.09;81.85;99854.94;4981723;28;20060;-71
2022/08/17 05:13:25;;;;;;;16.10;12.60;;;;;;;18.11;81.99;99851.84;4998057;28;20040;-69
2022/08/17 05:15:57;;;;;;;20.08;13.20;;;;;;;18.14;81.67;99851.16;5014324;28;20049;-71
2022/08/17 05:18:23;;;;;;;15.43;11.82;;;;;;;18.18;81.80;99857.66;5013269;28;20117;-70
2022/08/17 05:20:48;;;;;;;22.73;12.52;;;;;;;18.20;81.84;99855.38;5012686;28;20459;-70
2022/08/17 05:23:16;;;;;;;15.63;12.68;;;;;;;18.18;81.40;99863.19;5014886;28;20041;-71
2022/08/17 05:25:48;;;;;;;18.33;13.70;;;;;;;18.19;81.88;99853.75;5014519;28;20021;-72
2022/08/17 05:28:15;;;;;;;21.17;15.35;;;;;;;18.20;81.31;99858.13;4998837;28;20033;-71
2022/08/17 05:30:42;;;;;;;22.67;13.13;;;;;;;18.15;81.84;99858.34;4993959;28;20073;-69
2022/08/17 05:33:08;;;;;;;19.77;13.07;;;;;;;18.11;81.81;99865.66;5011927;28;20034;-69
2022/08/17 05:35:37;;;;;;;16.95;13.38;;;;;;;18.02;82.13;99864.88;5009716;28;20109;-69
2022/08/17 05:38:03;;;;;;;18.02;12.40;;;;;;;18.04;82.43;99874.47;5008793;28;20468;-69
2022/08/17 05:40:29;;;;;;;15.15;11.57;;;;;;;18.05;82.26;99869.75;4993990;28;20042;-69
2022/08/17 05:43:11;;;;;;;13.05;10.45;;;;;;;18.09;81.65;99870.69;4993065;28;20100;-70
2022/08/17 05:45:46;;;;;;;13.63;11.02;;;;;;;18.12;82.06;99881.09;5012536;28;20112;-69
2022/08/17 05:48:12;;;;;;;17.75;13.35;;;;;;;18.12;82.01;99872.81;4992215;28;20029;-68
2022/08/17 05:50:53;;;;;;;13.13;10.82;;;;;;;18.14;81.78;99862.25;5012106;28;20522;-70
2022/08/17 05:53:50;;;;;;;13.90;10.15;;;;;;;18.16;82.03;99871.00;4994345;28;20030;-69
2022/08/17 05:56:30;;;;;;;15.40;11.88;;;;;;;18.25;80.95;99869.03;4970317;28;20033;-69
2022/08/17 05:59:28;;;;;;;17.85;10.68;;;;;;;18.26;80.88;99876.19;5010444;28;20038;-69
2022/08/17 06:02:28;;;;;;;14.63;10.15;;;;;;;18.27;80.89;99875.03;5011281;28;20986;-71
2022/08/17 06:05:27;;;;;;;11.63;9.52;;;;;;;18.29;80.66;99875.50;5012244;28;20383;-71
2022/08/17 06:08:07;;;;;;;11.88;9.93;;;;;;;18.33;80.87;99870.16;5004035;28;20030;-72
2022/08/17 06:11:08;;;;;;;12.70;9.32;;;;;;;18.36;80.39;99874.22;5003712;28;20076;-71
2022/08/17 06:13:56;;;;;;;13.15;9.18;;;;;;;18.37;80.83;99886.88;5011418;28;20069;-70
2022/08/17 06:16:27;;;;;;;9.63;7.65;;;;;;;18.40;80.73;99891.75;5008770;28;20847;-70
2022/08/17 06:18:58;;;;;;;9.18;6.85;;;;;;;18.44;80.54;99895.47;5004632;28;20030;-71
2022/08/17 06:21:26;;;;;;;7.05;5.47;;;;;;;18.51;80.37;99898.56;5005768;28;20032;-70
2022/08/17 06:24:07;;;;;;;7.53;6.10;;;;;;;18.60;80.46;99899.34;5009775;28;20022;-70
2022/08/17 06:26:36;;;;;;;7.57;6.18;;;;;;;18.67;80.23;99902.41;5009685;28;20021;-70
2022/08/17 06:29:11;;;;;;;7.47;5.22;;;;;;;18.84;79.75;99911.75;5009021;28;20033;-70
2022/08/17 06:31:39;;;;;;;4.65;4.22;;;;;;;18.93;79.49;99914.50;5010400;28;20104;-71
2022/08/17 06:34:08;;;;;;;5.20;4.70;;;;;;;19.08;78.68;99918.66;5003118;28;20033;-71
2022/08/17 06:36:54;;;;;;;9.80;5.47;;;;;;;19.18;78.78;99915.50;4992208;28;20038;-71
2022/08/17 06:39:31;;;;;;;7.07;5.78;;;;;;;19.31;78.54;99919.97;5012685;28;20100;-72
2022/08/17 06:42:11;;;;;;;13.38;8.00;;;;;;;19.33;77.98;99906.59;4991930;28;20018;-71
2022/08/17 06:44:53;;;;;;;10.35;7.00;;;;;;;19.50;77.93;99915.91;4987778;28;20037;-70
2022/08/17 06:47:28;;;;;;;10.52;7.97;;;;;;;19.60;77.58;99923.00;4989923;28;20037;-70
2022/08/17 06:50:27;;;;;;;12.05;6.32;;;;;;;19.79;77.08;99917.00;4989703;28;20034;-71
2022/08/17 06:53:01;;;;;;;5.88;4.82;;;;;;;20.01;76.50;99919.38;5005836;28;20462;-69
2022/08/17 06:55:34;;;;;;;7.28;5.47;;;;;;;20.18;76.01;99928.66;5009998;28;20177;-72
2022/08/17 06:58:05;;;;;;;8.27;6.22;;;;;;;20.31;75.65;99921.19;4990458;28;20123;-70
2022/08/17 07:00:42;;;;;;;9.20;7.10;;;;;;;20.36;75.43;99916.22;5008608;28;20034;-71
2022/08/17 07:03:08;;;;;;;10.15;7.22;;;;;;;20.37;75.26;99919.81;5008030;28;20542;-72
2022/08/17 07:05:57;;;;;;;10.02;7.95;;;;;;;20.29;75.36;99906.84;4992703;28;20037;-71
2022/08/17 07:09:07;;;;;;;12.65;9.07;;;;;;;20.26;75.28;99913.91;4995629;28;20376;-71
2022/08/17 07:12:03;;;;;;;6.55;5.85;;;;;;;20.39;75.04;99928.63;4991619;28;20050;-74
2022/08/17 07:14:31;;;;;;;5.82;5.07;;;;;;;20.48;75.14;99931.28;4987492;28;20522;-73
2022/08/17 07:17:00;;;;;;;6.68;5.32;;;;;;;20.61;74.68;99930.16;5011251;28;20537;-73
2022/08/17 07:19:31;;;;;;;7.38;5.40;;;;;;;20.79;74.44;99941.88;5012010;28;20391;-72
2022/08/17 07:22:24;;;;;;;7.80;6.43;;;;;;;20.95;74.07;99933.66;5007052;28;20038;-71
2022/08/17 07:25:06;;;;;;;7.07;6.20;;;;;;;21.09;73.44;99936.06;5027602;28;20103;-72
2022/08/17 07:27:37;;;;;;;6.82;5.95;;;;;;;21.23;73.18;99941.25;5026612;28;20348;-73
2022/08/17 07:30:15;;;;;;;10.98;7.57;;;;;;;21.34;72.46;99933.25;5012405;28;20033;-72
2022/08/17 07:32:45;;;;;;;13.05;9.13;;;;;;;21.44;72.46;99939.13;5010583;28;20025;-72
2022/08/17 07:35:11;;;;;;;12.30;7.43;;;;;;;21.60;72.33;99944.00;5027408;28;20018;-74
2022/08/17 07:37:49;;;;;;;7.93;5.60;;;;;;;21.82;71.40;99950.19;5027243;28;20499;-71
2022/08/17 07:40:27;;;;;;;15.93;12.57;;;;;;;22.03;70.64;99953.56;5020783;28;20052;-71
2022/08/17 07:43:19;;;;;;;19.73;12.73;;;;;;;22.22;69.84;99952.88;5023359;28;20131;-70
2022/08/17 07:48:49;;;;;;;18.27;12.90;;;;;;;22.75;67.21;99965.81;5023687;28;20075;-70
2022/08/17 07:51:23;;;;;;;18.55;13.05;;;;;;;22.83;66.54;99962.84;5008210;28;20024;-72
2022/08/17 07:53:50;;;;;;;18.25;11.20;;;;;;;22.87;65.95;99962.13;5011658;28;20083;-71
2022/08/17 07:56:37;;;;;;;12.98;11.27;;;;;;;22.87;65.86;99962.94;5027036;28;20082;-71
2022/08/17 07:59:19;;;;;;;12.48;9.52;;;;;;;22.88;66.31;99956.22;5015274;28;20040;-70
2022/08/17 08:02:04;;;;;;;17.88;13.20;;;;;;;22.83;66.06;99951.69;5029560;28;20084;-71
2022/08/17 08:04:37;;;;;;;17.35;12.43;;;;;;;23.06;66.00;99959.41;5028541;28;20559;-72
2022/08/17 08:07:16;;;;;;;16.80;11.27;;;;;;;23.35;64.50;99960.13;5011876;28;20022;-71
2022/08/17 08:10:05;;;;;;;18.48;11.65;;;;;;;23.61;64.36;99973.44;5029877;28;20021;-71
2022/08/17 08:12:46;;;;;;;17.15;12.95;;;;;;;24.02;62.19;99981.47;5019620;28;20029;-70
2022/08/17 08:15:17;;;;;;;14.52;10.45;;;;;;;24.12;61.91;99985.66;5028022;28;20042;-72
2022/08/17 08:17:50;;;;;;;15.82;11.70;;;;;;;24.06;62.02;99987.94;5025961;28;20029;-71
2022/08/17 08:20:16;;;;;;;14.60;11.95;;;;;;;23.93;62.07;99986.47;5029738;28;20112;-71
2022/08/17 08:23:07;;;;;;;15.65;12.32;;;;;;;23.56;63.43;99993.25;5007759;28;20026;-70
2022/08/17 08:26:05;;;;;;;14.45;10.75;;;;;;;23.26;63.65;99984.59;5030518;28;20443;-69
2022/08/17 08:28:37;;;;;;;11.98;9.55;;;;;;;23.09;64.04;99992.16;5027306;28;20036;-70
2022/08/17 08:31:13;;;;;;;15.45;10.15;;;;;;;23.13;63.47;99981.09;5030049;28;20116;-69
2022/08/17 08:33:48;;;;;;;15.77;11.50;;;;;;;23.20;63.50;99991.63;5006986;28;20061;-69
2022/08/17 08:36:36;;;;;;;20.98;14.63;;;;;;;23.65;62.16;99987.47;5009581;28;20033;-70
2022/08/17 08:39:29;;;;;;;17.90;13.52;;;;;;;24.06;61.12;99993.53;5009320;28;20025;-69
2022/08/17 08:42:12;;;;;;;20.20;11.93;;;;;;;23.99;60.98;99996.16;5025013;28;20426;-69
2022/08/17 08:44:52;;;;;;;21.10;15.02;;;;;;;23.71;61.28;99997.16;5026659;28;20112;-70
2022/08/17 08:47:40;;;;;;;22.65;14.93;;;;;;;23.43;61.52;100000.13;5011903;28;20033;-70
2022/08/17 08:50:30;;;;;;;15.70;9.35;;;;;;;23.24;62.57;100009.25;5024662;28;20027;-69
2022/08/17 08:53:08;;;;;;;17.27;11.45;;;;;;;23.21;63.02;100013.56;5026482;28;20443;-70
2022/08/17 08:55:53;;;;;;;21.25;13.85;;;;;;;23.15;62.96;100018.63;5012086;28;20504;-71
2022/08/17 08:58:49;;;;;;;19.90;15.00;;;;;;;23.06;62.81;100023.53;5024133;28;20831;-70
2022/08/17 09:01:38;;;;;;;23.58;13.52;;;;;;;22.81;63.65;100026.50;5021613;28;20132;-71
2022/08/17 09:04:25;;;;;;;14.40;10.18;;;;;;;22.69;63.71;100032.16;5010126;28;20039;-70
2022/08/17 09:06:56;;;;;;;13.40;11.30;;;;;;;22.63;64.58;100033.59;5026211;28;20025;-71
2022/08/17 09:10:02;;;;;;;20.08;13.70;;;;;;;22.46;64.47;100038.34;5023942;28;20123;-70
2022/08/17 09:12:59;;;;;;;23.48;14.98;;;;;;;22.54;65.28;100044.09;5009378;28;20460;-70
2022/08/17 09:15:30;;;;;;;16.15;11.48;;;;;;;23.11;64.29;100042.00;5024597;28;20054;-69
2022/08/17 09:18:32;;;;;;;22.00;15.82;;;;;;;23.32;63.12;100045.31;5023363;28;20029;-71
2022/08/17 09:21:08;;;;;;;21.30;14.90;;;;;;;23.15;63.08;100046.50;5029590;28;20055;-70
2022/08/17 09:23:45;;;;;;;23.65;12.40;;;;;;;23.00;63.95;100047.31;5028820;28;20025;-71
2022/08/17 09:26:20;;;;;;;21.30;14.48;;;;;;;22.88;63.53;100051.00;5026954;28;20380;-70
2022/08/17 09:28:50;;;;;;;23.23;16.73;;;;;;;22.77;64.49;100042.31;5027157;28;20036;-70
2022/08/17 09:31:34;;;;;;;20.17;14.50;;;;;;;22.90;64.46;100045.06;5010083;28;20372;-70
2022/08/17 09:34:04;;;;;;;21.20;15.55;;;;;;;23.04;64.36;100045.38;5025005;28;20029;-69
2022/08/17 09:36:39;;;;;;;20.65;13.07;;;;;;;23.31;63.62;100045.69;5020727;28;20029;-71
2022/08/17 09:39:11;;;;;;;19.25;12.38;;;;;;;23.49;63.27;100046.09;5027252;28;20033;-70
2022/08/17 09:41:36;;;;;;;15.18;11.48;;;;;;;23.71;62.72;100058.56;5027187;28;20984;-70
2022/08/17 09:44:15;;;;;;;11.68;8.98;;;;;;;24.03;62.28;100047.31;5002841;28;20061;-70
2022/08/17 09:46:48;;;;;;;17.25;12.35;;;;;;;24.19;60.98;100062.00;5017210;28;20539;-70
2022/08/17 09:49:30;;;;;;;20.55;12.50;;;;;;;24.08;60.97;100063.81;5024372;28;20014;-70
2022/08/17 09:52:14;;;;;;;17.63;12.23;;;;;;;23.71;61.40;100061.34;5029764;28;20030;-71
2022/08/17 09:54:40;;;;;;;10.65;9.07;;;;;;;23.30;62.45;100069.16;5023913;28;20388;-70
2022/08/17 09:57:24;;;;;;;11.07;8.18;;;;;;;23.08;63.43;100071.38;5026359;28;20754;-71
2022/08/17 10:00:14;;;;;;;11.90;7.72;;;;;;;22.93;64.34;100077.78;5027100;28;20037;-70
2022/08/17 10:03:18;;;;;;;17.80;12.30;;;;;;;23.05;63.88;100076.88;5024872;28;20030;-70
2022/08/17 10:06:15;;;;;;;11.65;8.65;;;;;;;23.26;63.77;100073.84;5028266;28;20032;-70
2022/08/17 10:08:56;;;;;;;21.10;14.07;;;;;;;23.26;63.09;100073.84;5012848;28;20029;-71
2022/08/17 10:14:32;;;;;;;15.68;10.02;;;;;;;23.91;61.49;100078.19;5027772;28;20464;-71
2022/08/17 10:17:10;;;;;;;15.50;11.63;;;;;;;24.11;59.99;100079.81;5016358;28;20424;-70
2022/08/17 10:20:11;;;;;;;15.00;11.18;;;;;;;24.14;60.10;100073.50;4991643;28;20036;-70
2022/08/17 10:26:11;;;;;;;15.18;9.35;;;;;;;24.26;59.06;100086.50;5014716;28;20052;-70
2022/08/17 10:28:51;;;;;;;14.40;9.82;;;;;;;24.13;59.36;100079.44;4993739;28;20037;-71
2022/08/17 10:32:10;;;;;;;13.85;9.35;;;;;;;23.68;60.53;100085.25;5012478;28;20184;-69
2022/08/17 10:34:44;;;;;;;18.33;11.73;;;;;;;23.34;61.49;100086.81;4996388;28;20049;-70
2022/08/17 10:37:18;;;;;;;21.63;14.02;;;;;;;23.13;62.86;100087.91;5011105;28;20357;-70
2022/08/17 10:40:11;;;;;;;23.17;15.73;;;;;;;22.97;63.33;100081.47;4993557;28;20052;-71
2022/08/17 10:43:01;;;;;;;23.80;15.15;;;;;;;22.94;64.41;100080.22;5008235;28;20413;-72
2022/08/17 10:45:45;;;;;;;24.55;14.52;;;;;;;23.06;64.43;100079.31;5003095;28;20412;-73
2022/08/17 10:48:29;;;;;;;26.60;15.98;;;;;;;23.04;63.43;100078.84;5004778;28;20033;-69
2022/08/17 10:50:54;;;;;;;24.02;14.40;;;;;;;23.05;63.10;100086.06;5007382;28;20038;-70
2022/08/17 10:53:47;;;;;;;26.58;16.95;;;;;;;22.93;63.20;100086.16;5008489;28;20110;-70
2022/08/17 10:56:12;;;;;;;23.27;12.45;;;;;;;22.73;63.18;100074.06;5008268;28;20026;-70
2022/08/17 10:58:54;;;;;;;23.60;15.00;;;;;;;22.49;64.26;100076.63;5012218;28;20080;-70
2022/08/17 11:01:43;;;;;;;23.77;14.88;;;;;;;22.37;64.44;100062.75;5003278;28;20436;-69
2022/08/17 11:04:17;;;;;;;25.42;14.75;;;;;;;22.53;64.78;100070.31;4981003;28;20045;-70
2022/08/17 11:06:52;;;;;;;28.35;16.52;;;;;;;22.63;64.29;100083.75;5010505;28;20021;-69
2022/08/17 11:09:45;;;;;;;19.45;13.38;;;;;;;22.81;64.26;100082.25;5008442;28;20045;-70
2022/08/17 11:12:29;;;;;;;25.02;14.73;;;;;;;23.12;63.76;100077.09;5010485;28;20030;-71
2022/08/17 11:15:18;;;;;;;17.23;11.47;;;;;;;23.52;62.42;100088.06;5013066;28;20053;-70
2022/08/17 11:18:05;;;;;;;17.38;10.65;;;;;;;23.84;62.00;100098.34;5008589;28;20279;-71
2022/08/17 11:21:04;;;;;;;19.40;13.20;;;;;;;23.91;60.77;100097.72;5007559;28;20044;-71
2022/08/17 11:23:38;;;;;;;19.95;12.40;;;;;;;23.76;61.08;100090.97;5015033;28;20480;-70
2022/08/17 11:26:24;;;;;;;18.92;12.18;;;;;;;23.88;60.92;100083.31;5008164;28;20053;-71
2022/08/17 11:28:53;;;;;;;25.20;13.98;;;;;;;24.00;60.39;100087.94;5013750;28;20032;-70
2022/08/17 11:31:59;;;;;;;16.90;10.75;;;;;;;24.22;60.11;100088.41;4994800;28;20041;-69
2022/08/17 11:34:26;;;;;;;19.30;12.07;;;;;;;24.34;59.16;100087.47;5010016;28;20154;-71
2022/08/17 11:37:40;;;;;;;19.20;10.07;;;;;;;24.39;58.74;100078.78;4998054;28;20388;-71
2022/08/17 11:40:34;;;;;;;20.50;10.82;;;;;;;24.58;58.02;100081.56;5010778;28;20038;-71
2022/08/17 11:43:26;;;;;;;15.35;9.75;;;;;;;24.90;57.33;100086.97;5008934;28;20044;-70
2022/08/17 11:45:51;;;;;;;10.60;8.50;;;;;;;25.45;56.64;100088.72;5000840;28;20048;-70
2022/08/17 11:52:09;;;;;;;16.23;8.90;;;;;;;25.76;55.11;100082.00;4977527;28;20061;-70
2022/08/17 11:54:45;;;;;;;18.10;11.23;;;;;;;25.74;54.48;100086.34;4993464;28;20030;-69
2022/08/17 11:57:25;;;;;;;18.50;10.77;;;;;;;26.06;54.06;100078.41;4993318;28;20124;-68
2022/08/17 12:00:07;;;;;;;12.48;9.13;;;;;;;27.00;52.21;100080.31;5009679;28;20025;-70
2022/08/17 12:02:37;;;;;;;12.48;9.32;;;;;;;27.91;48.85;100079.00;5007745;28;20018;-70
2022/08/17 12:05:09;;;;;;;14.55;8.18;;;;;;;28.52;48.25;100089.72;4993237;28;20500;-71
2022/08/17 12:07:41;;;;;;;9.25;7.20;;;;;;;29.72;45.65;100083.78;5013342;28;20037;-71
2022/08/17 12:10:11;;;;;;;9.60;7.75;;;;;;;30.36;43.63;100087.66;4990821;28;20037;-70
2022/08/17 12:13:23;;;;;;;13.02;7.43;;;;;;;30.97;43.32;100078.03;5007251;28;20364;-71
2022/08/17 12:15:51;;;;;;;8.60;5.68;;;;;;;35.08;37.10;100074.53;5007135;28;20073;-70
2022/08/17 12:18:34;;;;;;;8.27;5.68;;;;;;;39.02;29.46;100077.59;5017276;28;20036;-71
2022/08/17 12:21:18;;;;;;;7.65;5.75;;;;;;;43.51;24.17;100076.28;4991403;28;20096;-71
2022/08/17 12:24:04;;;;;;;6.07;4.63;;;;;;;46.52;20.06;100076.78;5011354;28;20087;-70